createdAt,value
2022-12-08T14:09:05.070Z,56.81
2022-12-08T14:11:36.204Z,57.13
2022-12-08T14:14:04.594Z,57.10
2022-12-08T14:16:41.365Z,56.82
2022-12-08T14:19:26.984Z,56.98
2022-12-08T14:22:00.479Z,56.94
2022-12-08T14:24:28.255Z,57.01
2022-12-08T14:26:56.536Z,56.69
2022-12-08T14:29:29.108Z,56.88
2022-12-08T14:31:55.469Z,56.63
2022-12-08T14:34:22.011Z,56.88
2022-12-08T14:36:48.405Z,56.70
2022-12-08T14:39:14.864Z,56.72
2022-12-08T14:41:41.237Z,56.62
2022-12-08T14:44:21.185Z,56.59
2022-12-08T14:47:05.723Z,56.67
2022-12-08T14:49:36.977Z,56.91
2022-12-08T14:52:08.443Z,56.62
2022-12-08T14:54:35.316Z,56.97
2022-12-08T14:57:02.500Z,56.98
2022-12-08T14:59:33.264Z,57.00
2022-12-08T15:02:24.572Z,56.89
2022-12-08T15:04:58.587Z,57.00
2022-12-08T15:07:27.794Z,56.79
2022-12-08T15:10:27.257Z,56.69
2022-12-08T15:12:59.570Z,57.01
2022-12-08T15:15:26.537Z,56.69
2022-12-08T15:18:04.425Z,56.85
2022-12-08T15:20:45.517Z,56.77
2022-12-08T15:23:20.290Z,56.60
2022-12-08T15:25:46.712Z,56.76
2022-12-08T15:28:14.147Z,56.62
2022-12-08T15:30:40.628Z,56.77
2022-12-08T15:33:07.051Z,57.02
2022-12-08T15:35:38.837Z,56.99
2022-12-08T15:38:07.478Z,56.69
2022-12-08T15:40:33.845Z,56.69
2022-12-08T15:43:00.226Z,57.06
2022-12-08T15:45:30.410Z,56.80
2022-12-08T15:47:56.783Z,56.86
2022-12-08T15:50:23.639Z,56.94
2022-12-08T15:52:50.758Z,56.82
2022-12-08T15:55:18.631Z,56.85
2022-12-08T15:58:51.270Z,56.78
2022-12-08T16:03:59.873Z,56.96
2022-12-08T16:06:57.392Z,57.05
2022-12-08T16:09:11.247Z,57.15
2022-12-08T16:12:06.333Z,57.05
2022-12-08T16:15:39.754Z,56.82
2022-12-08T16:17:21.191Z,57.02
2022-12-08T16:19:47.659Z,57.11
2022-12-08T16:22:52.427Z,56.79
2022-12-08T16:25:17.842Z,56.85
2022-12-08T16:28:12.399Z,57.15
2022-12-08T16:30:32.014Z,57.06
2022-12-08T16:32:58.459Z,56.94
2022-12-08T16:35:24.826Z,56.86
2022-12-08T16:37:51.183Z,57.06
2022-12-08T16:40:17.744Z,56.84
2022-12-08T16:42:44.362Z,56.84
2022-12-08T16:45:18.292Z,56.91
2022-12-08T16:47:46.253Z,57.19
2022-12-08T16:50:17.147Z,57.08
2022-12-08T16:52:43.571Z,57.14
2022-12-08T16:55:14.676Z,57.15
2022-12-08T16:57:41.491Z,56.86
2022-12-08T17:00:09.080Z,57.09
2022-12-08T17:02:35.864Z,57.11
2022-12-08T17:05:02.333Z,56.87
2022-12-08T17:07:28.749Z,57.04
2022-12-08T17:09:55.128Z,56.74
2022-12-08T17:12:21.537Z,57.10
2022-12-08T17:14:47.899Z,56.84
2022-12-08T17:17:14.257Z,56.70
2022-12-08T17:19:40.661Z,57.01
2022-12-08T17:22:07.043Z,56.77
2022-12-08T17:24:33.544Z,57.01
2022-12-08T17:27:04.245Z,57.02
2022-12-08T17:29:31.540Z,56.95
2022-12-08T17:31:58.733Z,56.86
2022-12-08T17:34:25.206Z,56.81
2022-12-08T17:36:51.789Z,57.01
2022-12-08T17:39:19.240Z,58.79
2022-12-08T17:41:45.920Z,59.84
2022-12-08T17:44:13.582Z,60.82
2022-12-08T17:46:43.396Z,61.21
2022-12-08T17:49:15.768Z,61.08
2022-12-08T17:51:42.168Z,61.26
2022-12-08T17:54:08.597Z,60.83
2022-12-08T17:56:34.944Z,60.38
2022-12-08T17:59:02.681Z,59.45
2022-12-08T23:11:31.284Z,56.08
2022-12-08T23:13:59.857Z,55.97
2022-12-08T23:16:26.725Z,56.14
2022-12-08T23:18:53.605Z,56.25
2022-12-08T23:21:20.365Z,55.97
2022-12-08T23:23:46.948Z,55.96
2022-12-08T23:26:20.462Z,56.13
2022-12-08T23:28:47.369Z,56.28
2022-12-08T23:31:13.939Z,56.12
2022-12-08T23:33:40.924Z,56.27
2022-12-08T23:36:07.836Z,55.97
2022-12-08T23:38:34.486Z,55.96
2022-12-08T23:41:05.508Z,56.21
2022-12-08T23:43:32.081Z,56.25
2022-12-08T23:45:58.568Z,55.97
2022-12-08T23:48:25.129Z,56.35
2022-12-08T23:50:51.531Z,56.32
2022-12-08T23:53:18.018Z,56.39
2022-12-08T23:55:44.582Z,56.22
2022-12-08T23:58:11.400Z,56.27
